KSNA

John Wayne-Orange County Airport

Santa Ana, California, USA
METAR KSNA 201053Z AUTO 09003KT 10SM OVC013 18/16 A2977 RMK AO2 SLP079 T01830156
Observed Flight Rules
Sep-20 @ 10:53 UTC (29 minutes ago) Marginal Visual Flight Rules
Wind Visibility Clouds
90° at 3 knots 10 miles
  • Overcast at 1,300' AGL
Temperatures Readings
Current 18°C / 64°F
Dewpoint 16°C / 61°F
Humidity 88%
Altimeter 29.77" Hg
Pressure 1007.9 hPa
Elevation 16
METAR KSNA 201053Z AUTO 09003KT 10SM OVC013 18/16 A2977 RMK AO2 SLP079 T01830156
Observed Flight Rules
Sep-20 @ 10:53 UTC
(29 minutes ago)
MVFR
Wind Visibility
90° at 3 knots 10 miles
Clouds
  • Overcast at 1,300' AGL
Temperature Dewpoint
18°C / 64°F 16°C / 61°F
Humidity Altimeter Pressure
88% 29.77" Hg 1007.9 hPa